Time;durP1;ratioP1;P1;durP2;ratioP2;P2;SDS_P1;SDS_P2;PMS_P1;PMS_P2;Temp;Humidity;BMP_temperature;BMP_pressure;BME280_temperature;BME280_humidity;BME280_pressure;Samples;Min_cycle;Max_cycle;Signal;HPM_P1;HPM_P2
2022/05/10 00:00:53;;;;;;;;;;;;;;;;;;5072872;28;20040;-64
2022/05/10 00:03:20;;;;;;;19.00;7.50;;;;;;;;;;5072467;28;19916;-64
2022/05/10 00:05:46;;;;;;;14.30;7.13;;;;;;;;;;5069963;28;20032;-64
2022/05/10 00:08:15;;;;;;;15.00;6.75;;;;;;;;;;5062957;28;20033;-65
2022/05/10 00:10:43;;;;;;;23.73;8.05;;;;;;;;;;5065328;28;20035;-70
2022/05/10 00:13:09;;;;;;;16.63;7.15;;;;;;;;;;5069188;28;20086;-66
2022/05/10 00:15:35;;;;;;;15.32;6.65;;;;;;;;;;5070971;28;20028;-66
2022/05/10 00:18:01;;;;;;;13.10;7.13;;;;;;;;;;5070561;28;20032;-66
2022/05/10 00:20:27;;;;;;;15.23;7.15;;;;;;;;;;5064648;28;20068;-67
2022/05/10 00:22:53;;;;;;;16.63;7.38;;;;;;;;;;5056851;28;20094;-65
2022/05/10 00:25:25;;;;;;;18.13;7.53;;;;;;;;;;5050596;28;20033;-65
2022/05/10 00:27:51;;;;;;;12.25;6.88;;;;;;;;;;5050319;28;20399;-66
2022/05/10 00:30:17;;;;;;;14.27;6.90;;;;;;;;;;5050745;28;20025;-65
2022/05/10 00:32:43;;;;;;;14.40;6.57;;;;;;;;;;5052067;28;20052;-69
2022/05/10 00:35:18;;;;;;;12.05;6.30;;;;;;;;;;5071269;28;20049;-69
2022/05/10 00:37:46;;;;;;;12.50;6.15;;;;;;;;;;5071003;28;20053;-69
2022/05/10 00:40:16;;;;;;;13.43;5.78;;;;;;;;;;5070317;28;20076;-68
2022/05/10 00:43:23;;;;;;;11.75;5.63;;;;;;;;;;5071368;28;20464;-70
2022/05/10 00:45:59;;;;;;;8.88;5.40;;;;;;;;;;5065751;28;20036;-70
2022/05/10 00:48:46;;;;;;;11.93;5.63;;;;;;;;;;5071887;28;20028;-67
2022/05/10 00:51:40;;;;;;;12.38;5.75;;;;;;;;;;5074026;28;20059;-67
2022/05/10 00:54:32;;;;;;;9.27;5.20;;;;;;;;;;5074477;28;20044;-68
2022/05/10 00:57:14;;;;;;;12.02;3.72;;;;;;;;;;5073941;28;20116;-69
2022/05/10 00:59:56;;;;;;;10.00;3.95;;;;;;;;;;5073915;28;20047;-70
2022/05/10 01:02:58;;;;;;;6.97;3.50;;;;;;;;;;5074034;28;20028;-67
2022/05/10 01:05:42;;;;;;;10.98;3.63;;;;;;;;;;5074133;28;20029;-68
2022/05/10 01:08:23;;;;;;;11.70;4.40;;;;;;;;;;5074234;28;20037;-68
2022/05/10 01:11:08;;;;;;;7.57;3.97;;;;;;;;;;5057273;28;20029;-66
2022/05/10 01:13:50;;;;;;;8.63;3.70;;;;;;;;;;5053834;28;20045;-65
2022/05/10 01:16:19;;;;;;;10.32;3.88;;;;;;;;;;5053732;28;20063;-66
2022/05/10 01:18:46;;;;;;;8.65;4.25;;;;;;;;;;5053591;28;20379;-65
2022/05/10 01:21:54;;;;;;;7.97;3.80;;;;;;;;;;5053973;28;20540;-66
2022/05/10 01:24:49;;;;;;;8.07;4.03;;;;;;;;;;5054020;28;20067;-66
2022/05/10 01:27:42;;;;;;;10.05;3.97;;;;;;;;;;5053824;28;20032;-64
2022/05/10 01:30:29;;;;;;;7.68;2.95;;;;;;;;;;5053680;28;20065;-64
2022/05/10 01:35:50;;;;;;;5.15;3.10;;;;;;;;;;5053988;28;20403;-65
2022/05/10 01:38:32;;;;;;;6.88;2.92;;;;;;;;;;5053425;28;20033;-67
2022/05/10 01:41:32;;;;;;;7.30;3.10;;;;;;;;;;5053404;28;20048;-64
2022/05/10 01:44:26;;;;;;;7.07;2.85;;;;;;;;;;5052650;28;20075;-65
2022/05/10 01:46:59;;;;;;;4.90;3.03;;;;;;;;;;5053415;28;20060;-65
2022/05/10 01:49:28;;;;;;;;;;;;;;;;;;5053802;28;20064;-64
2022/05/10 01:52:09;;;;;;;8.25;3.72;;;;;;;;;;5052117;28;19923;-65
2022/05/10 01:54:41;;;;;;;4.53;2.80;;;;;;;;;;5052845;28;20036;-66
2022/05/10 01:57:15;;;;;;;7.70;3.00;;;;;;;;;;5052023;28;20040;-66
2022/05/10 01:59:48;;;;;;;7.88;3.20;;;;;;;;;;5053184;28;20562;-65
2022/05/10 02:02:18;;;;;;;6.20;2.88;;;;;;;;;;5053311;28;20442;-64
2022/05/10 02:04:48;;;;;;;6.97;2.70;;;;;;;;;;5055979;28;20032;-65
2022/05/10 02:07:19;;;;;;;7.53;2.60;;;;;;;;;;5072924;28;20115;-66
2022/05/10 02:10:02;;;;;;;8.63;3.42;;;;;;;;;;5072359;28;20032;-65
2022/05/10 02:12:44;;;;;;;7.07;2.58;;;;;;;;;;5070723;28;20392;-67
2022/05/10 02:15:25;;;;;;;8.38;3.10;;;;;;;;;;5072613;28;20502;-64
2022/05/10 02:18:18;;;;;;;6.40;3.00;;;;;;;;;;5072771;28;20494;-65
2022/05/10 02:21:00;;;;;;;11.32;3.40;;;;;;;;;;5071158;28;20044;-65
2022/05/10 02:23:34;;;;;;;6.82;2.97;;;;;;;;;;5063329;28;20108;-65
2022/05/10 02:26:09;;;;;;;8.95;4.10;;;;;;;;;;5059895;28;20071;-66
2022/05/10 02:28:47;;;;;;;6.32;2.85;;;;;;;;;;5052191;28;20089;-68
2022/05/10 02:31:24;;;;;;;15.38;5.07;;;;;;;;;;5064026;28;20127;-65
2022/05/10 02:33:50;;;;;;;8.95;2.92;;;;;;;;;;5072690;28;20078;-64
2022/05/10 02:36:17;;;;;;;6.57;3.00;;;;;;;;;;5065398;28;20060;-70
2022/05/10 02:38:44;;;;;;;6.15;2.67;;;;;;;;;;5072023;28;20032;-65
2022/05/10 02:41:16;;;;;;;5.38;2.83;;;;;;;;;;5071935;28;20081;-67
2022/05/10 02:44:01;;;;;;;5.47;2.38;;;;;;;;;;5072663;28;20048;-65
2022/05/10 02:46:27;;;;;;;6.43;2.75;;;;;;;;;;5071416;28;20044;-67
2022/05/10 02:48:53;;;;;;;9.30;3.00;;;;;;;;;;5072114;28;20058;-70
2022/05/10 02:51:20;;;;;;;8.93;4.45;;;;;;;;;;5053596;28;20033;-67
2022/05/10 02:53:46;;;;;;;10.18;2.90;;;;;;;;;;5052252;28;20033;-68
2022/05/10 02:56:19;;;;;;;11.68;3.13;;;;;;;;;;5052192;28;20475;-66
2022/05/10 02:58:51;;;;;;;7.10;2.95;;;;;;;;;;5052216;28;20394;-66
2022/05/10 03:01:45;;;;;;;4.45;3.15;;;;;;;;;;5067612;28;20032;-67
2022/05/10 03:04:12;;;;;;;6.35;3.13;;;;;;;;;;5069976;28;20123;-64
2022/05/10 03:06:40;;;;;;;6.65;3.00;;;;;;;;;;5055899;28;20017;-65
2022/05/10 03:09:06;;;;;;;4.05;2.40;;;;;;;;;;5051986;28;20040;-64
2022/05/10 03:11:33;;;;;;;7.20;2.65;;;;;;;;;;5055652;28;20074;-63
2022/05/10 03:13:59;;;;;;;7.80;3.03;;;;;;;;;;5071746;28;20058;-65
2022/05/10 03:16:25;;;;;;;5.60;2.58;;;;;;;;;;5070216;28;20470;-66
2022/05/10 03:18:52;;;;;;;9.18;3.10;;;;;;;;;;5071583;28;20055;-66
2022/05/10 03:21:19;;;;;;;6.30;2.78;;;;;;;;;;5072266;28;20024;-65
2022/05/10 03:23:45;;;;;;;6.47;2.80;;;;;;;;;;5072020;28;20040;-64
2022/05/10 03:26:14;;;;;;;10.32;3.17;;;;;;;;;;5071835;28;20020;-64
2022/05/10 03:28:40;;;;;;;11.32;3.42;;;;;;;;;;5069442;28;20033;-66
2022/05/10 03:31:08;;;;;;;6.20;2.50;;;;;;;;;;5050488;28;20162;-66
2022/05/10 03:33:34;;;;;;;4.70;2.40;;;;;;;;;;5069385;28;20689;-64
2022/05/10 03:35:59;;;;;;;5.68;2.20;;;;;;;;;;5070860;28;20107;-64
2022/05/10 03:38:25;;;;;;;3.33;2.03;;;;;;;;;;5070754;28;20075;-65
2022/05/10 03:40:52;;;;;;;7.57;2.67;;;;;;;;;;5070510;28;20020;-65
2022/05/10 03:43:18;;;;;;;7.15;2.78;;;;;;;;;;5070321;28;20028;-65
2022/05/10 03:45:43;;;;;;;5.35;2.72;;;;;;;;;;5070302;28;20021;-65
2022/05/10 03:48:09;;;;;;;8.57;2.90;;;;;;;;;;5071400;28;20025;-69
2022/05/10 03:50:35;;;;;;;11.90;3.72;;;;;;;;;;5071859;28;20086;-66
2022/05/10 03:53:01;;;;;;;6.93;2.60;;;;;;;;;;5071107;28;20431;-65
2022/05/10 03:55:28;;;;;;;7.70;2.78;;;;;;;;;;5071561;28;20067;-65
2022/05/10 03:57:55;;;;;;;8.60;3.17;;;;;;;;;;5071977;28;20220;-65
2022/05/10 04:00:25;;;;;;;10.07;2.75;;;;;;;;;;5071856;28;20047;-65
2022/05/10 04:02:52;;;;;;;7.30;2.55;;;;;;;;;;5072375;28;20028;-66
2022/05/10 04:05:19;;;;;;;5.63;2.78;;;;;;;;;;5071028;28;20077;-65
2022/05/10 04:07:45;;;;;;;9.07;3.58;;;;;;;;;;5071073;28;20036;-66
2022/05/10 04:10:13;;;;;;;4.80;2.20;;;;;;;;;;5071924;28;20027;-66
2022/05/10 04:12:40;;;;;;;8.55;4.80;;;;;;;;;;5071091;28;20120;-66
2022/05/10 04:15:10;;;;;;;10.23;3.58;;;;;;;;;;5070162;28;20032;-66
2022/05/10 04:17:35;;;;;;;6.35;2.50;;;;;;;;;;5071310;28;20398;-66
2022/05/10 04:20:02;;;;;;;11.52;3.55;;;;;;;;;;5071945;28;20036;-66
2022/05/10 04:22:28;;;;;;;7.45;2.30;;;;;;;;;;5074813;28;20032;-68
2022/05/10 04:24:54;;;;;;;24.05;7.47;;;;;;;;;;5075529;28;20035;-65
2022/05/10 04:27:20;;;;;;;10.70;2.80;;;;;;;;;;5068800;28;20044;-66
2022/05/10 04:29:45;;;;;;;6.10;2.72;;;;;;;;;;5075257;28;20035;-66
2022/05/10 04:32:11;;;;;;;12.75;3.22;;;;;;;;;;5068485;28;20064;-70
2022/05/10 04:34:39;;;;;;;7.82;2.40;;;;;;;;;;5063647;28;20028;-66
2022/05/10 04:37:04;;;;;;;13.35;3.22;;;;;;;;;;5060823;28;20487;-68
2022/05/10 04:41:24;;;;;;;11.57;3.03;;;;;;;;;;5074917;28;20563;-66
2022/05/10 04:42:17;;;;;;;14.30;3.85;;;;;;;;;;5075250;28;20483;-66
2022/05/10 04:44:43;;;;;;;9.55;3.00;;;;;;;;;;5075147;28;20032;-66
2022/05/10 04:47:10;;;;;;;7.28;2.42;;;;;;;;;;5074723;28;20040;-72
2022/05/10 04:49:35;;;;;;;12.77;2.85;;;;;;;;;;5075224;28;20028;-68
2022/05/10 04:52:01;;;;;;;8.00;2.33;;;;;;;;;;5075015;28;20498;-70
2022/05/10 04:54:27;;;;;;;7.25;2.80;;;;;;;;;;5075011;28;20039;-66
2022/05/10 04:56:53;;;;;;;8.85;2.80;;;;;;;;;;5074469;28;20052;-65
2022/05/10 04:59:19;;;;;;;9.38;3.13;;;;;;;;;;5073932;28;20077;-66
2022/05/10 05:01:45;;;;;;;10.57;3.38;;;;;;;;;;5074130;28;20028;-65
2022/05/10 05:04:10;;;;;;;13.02;3.22;;;;;;;;;;5074121;28;20438;-67
2022/05/10 05:06:39;;;;;;;9.95;2.53;;;;;;;;;;5071858;28;20032;-67
2022/05/10 05:09:06;;;;;;;19.05;4.72;;;;;;;;;;5053840;28;20409;-66
2022/05/10 05:11:33;;;;;;;7.60;2.97;;;;;;;;;;5055549;28;20033;-66
2022/05/10 05:13:59;;;;;;;9.73;2.80;;;;;;;;;;5054247;28;20028;-67
2022/05/10 05:16:25;;;;;;;6.55;2.25;;;;;;;;;;5057110;28;20039;-65
2022/05/10 05:18:51;;;;;;;8.50;2.65;;;;;;;;;;5073815;28;20021;-67
2022/05/10 05:21:17;;;;;;;18.40;3.13;;;;;;;;;;5073969;28;20072;-67
2022/05/10 05:23:44;;;;;;;12.48;3.13;;;;;;;;;;5074510;28;20028;-67
2022/05/10 05:26:10;;;;;;;9.52;2.50;;;;;;;;;;5074626;28;20037;-66
2022/05/10 05:28:36;;;;;;;12.77;2.90;;;;;;;;;;5074066;28;20077;-66
2022/05/10 05:31:03;;;;;;;6.28;3.00;;;;;;;;;;5073954;28;20062;-66
2022/05/10 05:33:28;;;;;;;12.13;2.90;;;;;;;;;;5072371;28;20037;-66
2022/05/10 05:35:54;;;;;;;12.45;3.72;;;;;;;;;;5073954;28;20039;-70
2022/05/10 05:38:20;;;;;;;20.55;2.65;;;;;;;;;;5074079;28;20020;-71
2022/05/10 05:40:46;;;;;;;10.70;3.03;;;;;;;;;;5067644;28;20036;-72
2022/05/10 05:43:19;;;;;;;8.32;3.10;;;;;;;;;;5073937;28;20020;-71
2022/05/10 05:45:45;;;;;;;10.63;3.05;;;;;;;;;;5073887;28;20047;-72
2022/05/10 05:48:12;;;;;;;7.60;2.95;;;;;;;;;;5068878;28;20029;-71
2022/05/10 05:50:38;;;;;;;9.02;3.15;;;;;;;;;;5053388;28;20388;-71
2022/05/10 05:53:04;;;;;;;15.60;6.40;;;;;;;;;;5053722;28;20028;-71
2022/05/10 05:55:30;;;;;;;9.10;2.67;;;;;;;;;;5065552;28;20045;-71
2022/05/10 05:57:57;;;;;;;8.52;2.45;;;;;;;;;;5073710;28;20033;-70
2022/05/10 06:00:25;;;;;;;7.57;2.53;;;;;;;;;;5071325;28;20491;-72
2022/05/10 06:02:53;;;;;;;7.90;2.83;;;;;;;;;;5073777;28;20028;-71
2022/05/10 06:05:21;;;;;;;11.02;3.08;;;;;;;;;;5073375;28;20037;-71
2022/05/10 06:07:47;;;;;;;8.52;2.97;;;;;;;;;;5072502;28;20090;-70
2022/05/10 06:10:13;;;;;;;5.00;2.80;;;;;;;;;;5066903;28;20402;-70
2022/05/10 06:12:40;;;;;;;10.15;3.40;;;;;;;;;;5065402;28;20087;-71
2022/05/10 06:15:08;;;;;;;5.38;2.50;;;;;;;;;;5053053;28;20033;-77
2022/05/10 06:17:36;;;;;;;5.90;2.70;;;;;;;;;;5053359;28;20045;-69
2022/05/10 06:20:04;;;;;;;8.55;2.97;;;;;;;;;;5053328;28;20111;-70
2022/05/10 06:22:31;;;;;;;6.40;2.20;;;;;;;;;;5064985;28;20016;-72
2022/05/10 06:24:59;;;;;;;6.97;2.30;;;;;;;;;;5071299;28;20471;-70
2022/05/10 06:27:25;;;;;;;6.47;3.00;;;;;;;;;;5071243;28;20035;-71
2022/05/10 06:29:51;;;;;;;4.28;2.22;;;;;;;;;;5071283;28;20031;-75
2022/05/10 06:32:26;;;;;;;4.32;2.10;;;;;;;;;;5070195;28;20020;-76
2022/05/10 06:34:53;;;;;;;5.60;2.15;;;;;;;;;;5070704;28;20581;-77
2022/05/10 06:40:14;;;;;;;7.50;3.22;;;;;;;;;;5072217;28;20460;-75
2022/05/10 06:42:41;;;;;;;9.93;2.90;;;;;;;;;;5070207;28;20036;-71
2022/05/10 06:45:10;;;;;;;7.45;2.97;;;;;;;;;;5072032;28;20052;-68
2022/05/10 06:47:42;;;;;;;9.98;3.28;;;;;;;;;;5071342;28;20032;-70
2022/05/10 06:50:11;;;;;;;8.75;2.85;;;;;;;;;;5069527;28;20033;-72
2022/05/10 06:52:37;;;;;;;9.10;3.00;;;;;;;;;;5071214;28;20024;-73
2022/05/10 06:55:05;;;;;;;10.18;3.55;;;;;;;;;;5071189;28;20347;-73
2022/05/10 06:57:31;;;;;;;9.52;2.88;;;;;;;;;;5070974;28;20032;-69
2022/05/10 06:59:56;;;;;;;8.38;2.75;;;;;;;;;;5071736;28;20039;-70
2022/05/10 07:02:25;;;;;;;8.40;3.00;;;;;;;;;;5069686;28;20024;-71
2022/05/10 07:04:52;;;;;;;9.63;3.13;;;;;;;;;;5069904;28;20028;-70
2022/05/10 07:07:18;;;;;;;19.38;3.88;;;;;;;;;;5070970;28;20369;-70
2022/05/10 07:09:44;;;;;;;7.65;3.20;;;;;;;;;;5070526;28;20028;-70
2022/05/10 07:12:11;;;;;;;11.98;3.47;;;;;;;;;;5068234;28;20506;-68
2022/05/10 07:14:37;;;;;;;8.27;3.40;;;;;;;;;;5071338;28;20036;-70
2022/05/10 07:17:03;;;;;;;11.65;3.47;;;;;;;;;;5071343;28;20021;-67
2022/05/10 07:19:29;;;;;;;12.90;4.15;;;;;;;;;;5070773;28;20100;-68
2022/05/10 07:21:54;;;;;;;11.30;3.72;;;;;;;;;;5069743;28;20577;-69
2022/05/10 07:24:20;;;;;;;11.40;3.60;;;;;;;;;;5068738;28;20032;-69
2022/05/10 07:26:47;;;;;;;17.25;4.70;;;;;;;;;;5070742;28;20059;-69
2022/05/10 07:29:14;;;;;;;10.52;4.03;;;;;;;;;;5071157;28;20043;-68
2022/05/10 07:31:40;;;;;;;12.50;3.75;;;;;;;;;;5071551;28;20029;-68
2022/05/10 07:34:08;;;;;;;11.02;4.47;;;;;;;;;;5069203;28;20111;-71
2022/05/10 07:36:34;;;;;;;6.13;3.05;;;;;;;;;;5069485;28;20025;-70
2022/05/10 07:39:04;;;;;;;8.13;3.15;;;;;;;;;;5070993;28;20040;-69
2022/05/10 07:41:31;;;;;;;7.47;3.10;;;;;;;;;;5071135;28;20044;-70
2022/05/10 07:43:57;;;;;;;5.75;2.65;;;;;;;;;;5070436;28;20025;-70
2022/05/10 07:46:24;;;;;;;9.23;3.10;;;;;;;;;;5070873;28;20060;-72
2022/05/10 07:48:50;;;;;;;7.70;3.17;;;;;;;;;;5071256;28;20029;-68
2022/05/10 07:51:17;;;;;;;5.97;2.95;;;;;;;;;;5068322;28;20082;-71
2022/05/10 07:53:43;;;;;;;9.07;3.30;;;;;;;;;;5071323;28;20340;-67
2022/05/10 07:56:09;;;;;;;6.40;2.30;;;;;;;;;;5073423;28;20041;-68
2022/05/10 07:58:35;;;;;;;8.13;2.75;;;;;;;;;;5074494;28;20039;-68
2022/05/10 08:01:03;;;;;;;5.35;3.03;;;;;;;;;;5074427;28;20036;-69
2022/05/10 08:03:30;;;;;;;10.50;2.95;;;;;;;;;;5074981;28;20035;-68
2022/05/10 08:05:57;;;;;;;8.20;2.78;;;;;;;;;;5073978;28;20192;-68
2022/05/10 08:08:23;;;;;;;13.02;2.88;;;;;;;;;;5073461;28;20028;-68
2022/05/10 08:10:51;;;;;;;6.90;2.42;;;;;;;;;;5074448;28;20044;-68
2022/05/10 08:13:20;;;;;;;7.80;2.65;;;;;;;;;;5073334;28;20020;-68
2022/05/10 08:15:46;;;;;;;9.98;3.00;;;;;;;;;;5074534;28;20306;-71
2022/05/10 08:18:13;;;;;;;4.50;2.42;;;;;;;;;;5074514;28;20356;-71
2022/05/10 08:20:41;;;;;;;6.93;2.20;;;;;;;;;;5072991;28;20036;-70
2022/05/10 08:23:08;;;;;;;6.35;1.70;;;;;;;;;;5074598;28;20085;-67
2022/05/10 08:25:34;;;;;;;5.95;1.77;;;;;;;;;;5077478;28;20036;-70
2022/05/10 08:28:00;;;;;;;5.00;2.40;;;;;;;;;;5080647;28;20100;-69
2022/05/10 08:30:26;;;;;;;4.40;1.65;;;;;;;;;;5074270;28;20103;-68
2022/05/10 08:32:52;;;;;;;4.63;1.80;;;;;;;;;;5073332;28;20078;-69
2022/05/10 08:35:18;;;;;;;4.20;1.73;;;;;;;;;;5073071;28;20060;-67
2022/05/10 08:37:44;;;;;;;8.30;1.92;;;;;;;;;;5074697;28;20017;-75
2022/05/10 08:40:34;;;;;;;4.72;1.40;;;;;;;;;;5073970;28;20398;-70
2022/05/10 08:43:04;;;;;;;3.53;1.67;;;;;;;;;;5054147;28;20037;-70
2022/05/10 08:45:35;;;;;;;4.20;1.40;;;;;;;;;;5060362;28;20044;-68
2022/05/10 08:48:01;;;;;;;8.85;1.90;;;;;;;;;;5072758;28;20048;-68
2022/05/10 08:50:27;;;;;;;3.97;1.67;;;;;;;;;;5073377;28;20463;-70
2022/05/10 08:52:53;;;;;;;6.05;1.70;;;;;;;;;;5073165;28;20032;-71
2022/05/10 08:55:27;;;;;;;5.97;1.38;;;;;;;;;;5073134;28;20056;-72
2022/05/10 08:58:09;;;;;;;2.65;1.40;;;;;;;;;;5072027;28;20036;-72
2022/05/10 09:00:49;;;;;;;5.22;1.50;;;;;;;;;;5073872;28;20405;-71
2022/05/10 09:03:41;;;;;;;4.25;1.52;;;;;;;;;;5073579;28;20041;-70
2022/05/10 09:06:46;;;;;;;5.35;1.80;;;;;;;;;;5069607;28;20156;-72
2022/05/10 09:09:42;;;;;;;3.75;1.65;;;;;;;;;;5047058;28;20037;-71
2022/05/10 09:12:09;;;;;;;2.20;1.45;;;;;;;;;;5051530;28;20041;-69
2022/05/10 09:14:43;;;;;;;4.88;1.95;;;;;;;;;;5066638;28;20052;-70
2022/05/10 09:17:10;;;;;;;5.88;1.50;;;;;;;;;;5073634;28;20041;-69
2022/05/10 09:19:42;;;;;;;4.30;1.35;;;;;;;;;;5073319;28;20113;-67
2022/05/10 09:22:30;;;;;;;7.85;2.33;;;;;;;;;;5073393;28;20372;-68
2022/05/10 09:24:56;;;;;;;7.28;1.88;;;;;;;;;;5062168;28;20042;-71
2022/05/10 09:27:31;;;;;;;7.00;1.70;;;;;;;;;;5072278;28;20190;-71
2022/05/10 09:29:58;;;;;;;6.50;1.55;;;;;;;;;;5073644;28;20150;-73
2022/05/10 09:35:19;;;;;;;4.35;1.75;;;;;;;;;;5073424;28;20099;-70
2022/05/10 09:37:54;;;;;;;3.22;1.30;;;;;;;;;;5073202;28;20383;-68
2022/05/10 09:40:28;;;;;;;6.40;2.63;;;;;;;;;;5072973;28;20419;-72
2022/05/10 09:43:26;;;;;;;4.63;1.50;;;;;;;;;;5072602;28;20028;-68
2022/05/10 09:46:06;;;;;;;12.02;2.47;;;;;;;;;;5064226;28;20033;-68
2022/05/10 09:48:32;;;;;;;3.55;1.60;;;;;;;;;;5071688;28;20039;-69
2022/05/10 09:51:17;;;;;;;2.58;1.38;;;;;;;;;;5073616;28;20029;-73
2022/05/10 09:53:43;;;;;;;6.25;2.45;;;;;;;;;;5069122;28;20433;-72
2022/05/10 09:56:24;;;;;;;6.40;1.90;;;;;;;;;;5067089;28;20385;-69
2022/05/10 09:59:25;;;;;;;5.38;1.35;;;;;;;;;;5073251;28;20032;-71
2022/05/10 10:01:58;;;;;;;2.33;1.33;;;;;;;;;;5057283;28;20047;-72
2022/05/10 10:04:31;;;;;;;7.22;1.70;;;;;;;;;;5053380;28;20037;-69
2022/05/10 10:07:17;;;;;;;2.25;1.13;;;;;;;;;;5052996;28;20431;-75
2022/05/10 10:09:51;;;;;;;4.72;1.50;;;;;;;;;;5053693;28;20055;-69
2022/05/10 10:12:29;;;;;;;4.55;1.60;;;;;;;;;;5053540;28;20037;-71
2022/05/10 10:14:55;;;;;;;4.90;1.77;;;;;;;;;;5053182;28;20090;-72
2022/05/10 10:17:38;;;;;;;6.15;1.80;;;;;;;;;;5052876;28;20033;-70
2022/05/10 10:20:40;;;;;;;5.03;1.40;;;;;;;;;;5053470;28;20037;-70
2022/05/10 10:23:30;;;;;;;3.67;1.20;;;;;;;;;;5039619;28;20063;-68
2022/05/10 10:26:06;;;;;;;2.80;1.33;;;;;;;;;;5065598;28;20490;-70
2022/05/10 10:28:50;;;;;;;2.13;1.10;;;;;;;;;;5070448;28;20157;-69
2022/05/10 10:31:27;;;;;;;3.90;1.50;;;;;;;;;;5069234;28;20036;-70
2022/05/10 10:34:19;;;;;;;4.07;1.30;;;;;;;;;;5071876;28;20145;-69
2022/05/10 10:37:09;;;;;;;4.47;1.42;;;;;;;;;;5070722;28;20040;-70
2022/05/10 10:40:17;;;;;;;4.97;1.40;;;;;;;;;;5068951;28;20071;-69
2022/05/10 10:42:49;;;;;;;2.97;1.35;;;;;;;;;;5058374;28;20052;-70
2022/05/10 10:45:16;;;;;;;6.93;1.50;;;;;;;;;;5068503;28;20063;-71
2022/05/10 10:48:29;;;;;;;3.47;1.10;;;;;;;;;;5072337;28;20032;-70
2022/05/10 10:50:56;;;;;;;2.70;1.10;;;;;;;;;;5056014;28;20109;-71
2022/05/10 10:53:25;;;;;;;1.83;1.00;;;;;;;;;;5072058;28;20035;-71
2022/05/10 10:56:06;;;;;;;2.65;1.42;;;;;;;;;;5071040;28;20135;-71
2022/05/10 10:58:53;;;;;;;5.10;1.45;;;;;;;;;;5071919;28;20380;-70
2022/05/10 11:01:34;;;;;;;4.68;1.17;;;;;;;;;;5071992;28;20073;-71
2022/05/10 11:04:12;;;;;;;4.40;1.20;;;;;;;;;;5072139;28;20029;-71
2022/05/10 11:06:45;;;;;;;4.05;1.33;;;;;;;;;;5071800;28;20054;-71
2022/05/10 11:09:32;;;;;;;2.28;1.08;;;;;;;;;;5088873;28;20146;-70
2022/05/10 11:12:02;;;;;;;3.67;1.40;;;;;;;;;;5074169;28;20075;-68
2022/05/10 11:14:40;;;;;;;4.30;1.60;;;;;;;;;;5072974;28;20111;-68
2022/05/10 11:17:19;;;;;;;4.60;2.03;;;;;;;;;;5070546;28;20403;-72
2022/05/10 11:20:14;;;;;;;4.43;1.40;;;;;;;;;;5072317;28;20097;-71
2022/05/10 11:22:51;;;;;;;4.18;1.70;;;;;;;;;;5072573;28;20058;-70
2022/05/10 11:26:00;;;;;;;3.58;1.20;;;;;;;;;;5071547;28;20032;-70
2022/05/10 11:28:44;;;;;;;5.72;1.10;;;;;;;;;;5070080;28;20437;-69
2022/05/10 11:31:37;;;;;;;2.67;1.33;;;;;;;;;;5051138;28;20392;-71
2022/05/10 11:34:21;;;;;;;2.58;1.40;;;;;;;;;;5052310;28;20040;-72
2022/05/10 11:36:51;;;;;;;3.45;1.52;;;;;;;;;;5054966;28;20051;-72
2022/05/10 11:39:16;;;;;;;2.00;1.30;;;;;;;;;;5055040;28;20415;-71
2022/05/10 11:41:58;;;;;;;4.38;1.45;;;;;;;;;;5057935;28;20067;-71
2022/05/10 11:44:36;;;;;;;5.00;1.48;;;;;;;;;;5057161;28;20060;-70
2022/05/10 11:47:20;;;;;;;3.05;1.30;;;;;;;;;;5053973;28;20468;-72
2022/05/10 11:50:17;;;;;;;3.13;1.25;;;;;;;;;;5052378;28;20037;-68
2022/05/10 11:53:06;;;;;;;3.83;1.17;;;;;;;;;;5052688;28;20428;-73
2022/05/10 11:55:54;;;;;;;5.72;1.30;;;;;;;;;;5052965;28;20041;-75
2022/05/10 11:58:23;;;;;;;4.20;1.40;;;;;;;;;;5054544;28;20049;-71
2022/05/10 12:00:56;;;;;;;4.45;1.55;;;;;;;;;;5056507;28;20145;-73
2022/05/10 12:03:39;;;;;;;4.78;1.25;;;;;;;;;;5057105;28;20037;-69
2022/05/10 12:06:23;;;;;;;3.97;1.20;;;;;;;;;;5058724;28;20076;-74
2022/05/10 12:08:57;;;;;;;2.00;1.15;;;;;;;;;;5058902;28;20502;-70
2022/05/10 12:11:32;;;;;;;3.15;1.30;;;;;;;;;;5057099;28;20033;-69
2022/05/10 12:22:18;;;;;;;5.82;1.77;;;;;;;;;;5073535;28;20041;-69
2022/05/10 12:24:46;;;;;;;4.25;1.63;;;;;;;;;;5074785;28;20025;-70
2022/05/10 12:27:12;;;;;;;4.25;1.65;;;;;;;;;;5076840;28;20028;-69
2022/05/10 12:29:38;;;;;;;3.25;1.42;;;;;;;;;;5063017;28;20021;-71
2022/05/10 12:32:19;;;;;;;7.07;1.33;;;;;;;;;;5053861;28;20079;-76
2022/05/10 12:34:52;;;;;;;3.45;1.27;;;;;;;;;;5057024;28;20097;-72
2022/05/10 12:37:33;;;;;;;;;;;;;;;;;;5056342;28;20056;-72
2022/05/10 12:40:11;;;;;;;4.82;1.30;;;;;;;;;;5055890;28;20359;-69
2022/05/10 12:42:37;;;;;;;6.78;1.30;;;;;;;;;;5059620;28;20093;-70
2022/05/10 12:45:18;;;;;;;4.47;1.20;;;;;;;;;;5059835;28;20064;-71
2022/05/10 12:48:08;;;;;;;6.45;1.40;;;;;;;;;;5058364;28;20056;-71
2022/05/10 12:50:42;;;;;;;4.30;1.40;;;;;;;;;;5056057;28;20048;-71
2022/05/10 12:53:24;;;;;;;5.97;1.60;;;;;;;;;;5055386;28;20029;-71
2022/05/10 12:55:52;;;;;;;3.80;1.30;;;;;;;;;;5067190;28;20115;-70
2022/05/10 12:58:25;;;;;;;4.63;1.23;;;;;;;;;;5076665;28;20036;-75
2022/05/10 13:00:57;;;;;;;2.67;1.35;;;;;;;;;;5078213;28;20040;-73
2022/05/10 13:03:36;;;;;;;2.87;1.30;;;;;;;;;;5076672;28;20571;-73
2022/05/10 13:06:24;;;;;;;2.63;1.10;;;;;;;;;;5077196;28;20029;-71
2022/05/10 13:09:29;;;;;;;2.70;1.20;;;;;;;;;;5078737;28;20032;-72
2022/05/10 13:12:07;;;;;;;4.22;1.25;;;;;;;;;;5078954;28;20083;-77
2022/05/10 13:14:46;;;;;;;4.07;1.20;;;;;;;;;;5077460;28;20033;-75
2022/05/10 13:17:25;;;;;;;2.60;1.40;;;;;;;;;;5077027;28;20028;-69
2022/05/10 13:19:52;;;;;;;5.57;1.25;;;;;;;;;;5077672;28;20086;-72
2022/05/10 13:22:20;;;;;;;3.20;1.80;;;;;;;;;;5075684;28;20471;-71
2022/05/10 13:24:53;;;;;;;7.30;1.58;;;;;;;;;;5078424;28;20048;-72
2022/05/10 13:27:26;;;;;;;2.80;1.30;;;;;;;;;;5078746;28;20039;-69
2022/05/10 13:29:54;;;;;;;2.15;1.20;;;;;;;;;;5074790;28;20459;-74
2022/05/10 13:32:27;;;;;;;6.93;1.60;;;;;;;;;;5067586;28;20435;-72
2022/05/10 13:35:04;;;;;;;6.25;1.40;;;;;;;;;;5055430;28;20033;-76
2022/05/10 13:37:32;;;;;;;3.45;1.35;;;;;;;;;;5055561;28;20056;-73
2022/05/10 13:40:08;;;;;;;5.63;1.35;;;;;;;;;;5072046;28;20056;-75
2022/05/10 13:42:40;;;;;;;2.25;1.23;;;;;;;;;;5074595;28;20033;-76
2022/05/10 13:45:06;;;;;;;2.30;1.20;;;;;;;;;;5074678;28;20029;-72
2022/05/10 13:47:32;;;;;;;4.93;1.90;;;;;;;;;;5074252;28;20033;-75
2022/05/10 13:50:00;;;;;;;2.85;1.27;;;;;;;;;;5074092;28;20035;-74
2022/05/10 13:52:37;;;;;;;6.20;1.45;;;;;;;;;;5074001;28;20371;-75
2022/05/10 13:55:07;;;;;;;5.13;1.55;;;;;;;;;;5073755;28;20487;-76
2022/05/10 13:57:35;;;;;;;9.75;2.70;;;;;;;;;;5073889;28;20033;-75
2022/05/10 14:00:33;;;;;;;4.07;1.50;;;;;;;;;;5074379;28;20089;-74
2022/05/10 14:03:00;;;;;;;3.63;1.35;;;;;;;;;;5072995;28;20110;-72
2022/05/10 14:05:29;;;;;;;2.05;1.40;;;;;;;;;;5073644;28;20102;-72
2022/05/10 14:08:00;;;;;;;3.47;1.30;;;;;;;;;;5074019;28;20104;-74
2022/05/10 14:10:30;;;;;;;5.55;1.50;;;;;;;;;;5074152;28;20062;-72
2022/05/10 14:13:01;;;;;;;4.32;1.80;;;;;;;;;;5074434;28;20170;-71
2022/05/10 14:15:49;;;;;;;5.15;1.70;;;;;;;;;;5073680;28;20033;-71
2022/05/10 14:18:39;;;;;;;4.20;1.50;;;;;;;;;;5073265;28;20032;-71
2022/05/10 14:21:20;;;;;;;5.25;1.48;;;;;;;;;;5073732;28;20037;-72
2022/05/10 14:23:46;;;;;;;3.65;1.10;;;;;;;;;;5072449;28;20075;-70
2022/05/10 14:26:29;;;;;;;4.38;1.40;;;;;;;;;;5073601;28;20032;-71
2022/05/10 14:28:55;;;;;;;3.72;1.48;;;;;;;;;;5073626;28;20032;-72
2022/05/10 14:31:55;;;;;;;4.43;1.55;;;;;;;;;;5072917;28;20546;-77
2022/05/10 14:34:48;;;;;;;3.03;1.10;;;;;;;;;;5072587;28;20071;-71
2022/05/10 14:37:19;;;;;;;3.67;1.33;;;;;;;;;;5073403;28;20040;-71
2022/05/10 14:39:46;;;;;;;5.50;1.30;;;;;;;;;;5073478;28;20461;-74
2022/05/10 14:42:27;;;;;;;4.25;1.48;;;;;;;;;;5073445;28;20051;-76
2022/05/10 14:44:54;;;;;;;2.97;1.48;;;;;;;;;;5073304;28;20113;-70
2022/05/10 14:47:26;;;;;;;5.30;1.50;;;;;;;;;;5073121;28;20464;-71
2022/05/10 14:49:52;;;;;;;2.03;1.48;;;;;;;;;;5073224;28;20437;-73
2022/05/10 14:52:28;;;;;;;2.47;1.50;;;;;;;;;;5073175;28;20048;-74
2022/05/10 14:54:57;;;;;;;7.10;1.48;;;;;;;;;;5073120;28;20028;-76
2022/05/10 14:57:41;;;;;;;3.42;1.20;;;;;;;;;;5073016;28;20086;-74
2022/05/10 15:00:29;;;;;;;2.45;1.42;;;;;;;;;;5073067;28;20060;-72
2022/05/10 15:03:16;;;;;;;4.38;2.08;;;;;;;;;;5071877;28;20040;-76
2022/05/10 15:05:47;;;;;;;2.38;1.40;;;;;;;;;;5072698;28;20029;-72
2022/05/10 15:08:12;;;;;;;5.30;1.80;;;;;;;;;;5072523;28;20123;-69
2022/05/10 15:10:41;;;;;;;4.10;1.60;;;;;;;;;;5062490;28;20089;-71
2022/05/10 15:13:10;;;;;;;7.95;1.98;;;;;;;;;;5071344;28;20032;-72
2022/05/10 15:15:58;;;;;;;5.88;1.42;;;;;;;;;;5071705;28;20056;-71
2022/05/10 15:21:13;;;;;;;2.58;1.45;;;;;;;;;;5071037;28;20050;-72
2022/05/10 15:23:39;;;;;;;2.08;1.00;;;;;;;;;;5071318;28;20047;-72
2022/05/10 15:26:08;;;;;;;10.02;1.85;;;;;;;;;;5070511;28;20383;-72
2022/05/10 15:28:34;;;;;;;6.50;1.35;;;;;;;;;;5069827;28;20036;-72
2022/05/10 15:31:00;;;;;;;5.47;1.58;;;;;;;;;;5070123;28;20521;-72
2022/05/10 15:33:26;;;;;;;4.25;1.63;;;;;;;;;;5070273;28;20056;-73
2022/05/10 15:35:55;;;;;;;4.45;1.30;;;;;;;;;;5070460;28;20449;-71